Time;durP1;ratioP1;P1;durP2;ratioP2;P2;SDS_P1;SDS_P2;PMS_P1;PMS_P2;Temp;Humidity;BMP_temperature;BMP_pressure;BME280_temperature;BME280_humidity;BME280_pressure;Samples;Min_cycle;Max_cycle;Signal;HPM_P1;HPM_P2
2022/05/30 00:00:45;;;;;;;;;;;;;;;16.18;69.94;99472.31;6189847;23;20352;-78
2022/05/30 00:03:11;;;;;;;;;;;;;;;16.20;70.27;99477.53;6215238;23;19927;-78
2022/05/30 00:05:41;;;;;;;;;;;;;;;16.30;70.02;99472.06;6190183;23;20276;-79
2022/05/30 00:08:07;;;;;;;;;;;;;;;16.40;70.11;99467.44;6191116;23;20332;-79
2022/05/30 00:10:33;;;;;;;;;;;;;;;16.39;70.24;99454.94;6189939;23;19951;-79
2022/05/30 00:12:58;;;;;;;;;;;;;;;16.42;69.96;99477.03;6215800;23;19931;-78
2022/05/30 00:15:24;;;;;;;;;;;;;;;16.45;69.83;99494.78;6190222;23;19920;-79
2022/05/30 00:17:53;;;;;;;;;;;;;;;16.39;70.24;99549.34;6189614;23;19920;-79
2022/05/30 00:20:19;;;;;;;;;;;;;;;15.98;71.50;99613.66;6215666;23;19927;-79
2022/05/30 00:22:46;;;;;;;;;;;;;;;15.73;72.18;99624.16;6215539;23;19919;-78
2022/05/30 00:25:11;;;;;;;;;;;;;;;15.56;72.96;99554.84;6165125;23;19919;-79
2022/05/30 00:27:37;;;;;;;;;;;;;;;15.62;72.48;99504.91;6214656;23;19941;-78
2022/05/30 00:30:03;;;;;;;;;;;;;;;15.78;71.69;99514.03;6189107;23;19920;-78
2022/05/30 00:32:31;;;;;;;;;;;;;;;15.87;71.68;99506.03;6214874;23;19919;-79
2022/05/30 00:34:57;;;;;;;;;;;;;;;15.84;72.08;99503.66;6214805;23;19927;-79
2022/05/30 00:37:25;;;;;;;;;;;;;;;15.83;71.95;99502.78;6214635;23;19970;-79
2022/05/30 00:39:51;;;;;;;;;;;;;;;15.94;71.76;99515.19;6213721;23;20398;-79
2022/05/30 00:42:18;;;;;;;;;;;;;;;15.67;72.84;99543.88;6164816;23;19924;-78
2022/05/30 00:44:45;;;;;;;;;;;;;;;15.45;73.51;99544.25;6164999;23;20256;-79
2022/05/30 00:47:11;;;;;;;;;;;;;;;15.51;72.89;99519.41;6214895;23;19920;-79
2022/05/30 00:49:38;;;;;;;;;;;;;;;15.60;72.55;99496.94;6164865;23;19969;-78
2022/05/30 00:52:07;;;;;;;;;;;;;;;15.41;73.05;99542.84;6214759;23;19920;-78
2022/05/30 00:54:35;;;;;;;;;;;;;;;15.16;74.26;99606.31;6214634;23;19924;-79
2022/05/30 00:57:20;;;;;;;;;;;;;;;15.16;74.23;99666.41;6189589;23;20366;-79
2022/05/30 00:59:53;;;;;;;;;;;;;;;14.81;75.41;99675.91;6164799;23;19926;-78
2022/05/30 01:02:19;;;;;;;;;;;;;;;14.47;75.98;99597.44;6214624;23;19926;-77
2022/05/30 01:07:29;;;;;;;;;;;;;;;14.16;78.17;99620.91;6189464;23;19924;-77
2022/05/30 01:09:56;;;;;;;;;;;;;;;14.07;78.90;99608.31;6189527;23;19920;-77
2022/05/30 01:12:42;;;;;;;;;;;;;;;13.84;79.87;99587.03;6189515;23;19947;-77
2022/05/30 01:15:09;;;;;;;;;;;;;;;13.78;79.88;99571.44;6214552;23;20363;-76
2022/05/30 01:17:40;;;;;;;;;;;;;;;13.78;80.21;99549.97;6164644;23;20312;-77
2022/05/30 01:20:11;;;;;;;;;;;;;;;13.87;80.48;99529.47;6214110;23;20289;-77
2022/05/30 01:22:42;;;;;;;;;;;;;;;13.98;80.67;99533.88;6189360;23;20006;-76
2022/05/30 01:25:17;;;;;;;;;;;;;;;14.01;80.88;99544.34;6164430;23;19927;-77
2022/05/30 01:28:09;;;;;;;;;;;;;;;13.98;80.34;99548.16;6178251;23;20279;-77
2022/05/30 01:30:40;;;;;;;;;;;;;;;14.03;80.65;99542.38;6214356;23;20259;-78
2022/05/30 01:33:06;;;;;;;;;;;;;;;14.06;80.96;99534.00;6189249;23;19927;-77
2022/05/30 01:35:32;;;;;;;;;;;;;;;14.15;81.38;99543.94;6188603;23;20054;-77
2022/05/30 01:38:02;;;;;;;;;;;;;;;14.19;81.65;99564.16;6189745;23;19931;-77
2022/05/30 01:40:30;;;;;;;;;;;;;;;14.14;80.71;99581.69;6164379;23;19927;-76
2022/05/30 01:42:56;;;;;;;;;;;;;;;13.89;79.27;99604.59;6215688;23;19919;-77
2022/05/30 01:45:23;;;;;;;;;;;;;;;13.79;78.96;99605.38;6167026;23;19927;-77
2022/05/30 01:47:50;;;;;;;;;;;;;;;13.76;78.47;99594.06;6166275;23;19923;-77
2022/05/30 01:50:16;;;;;;;;;;;;;;;13.91;79.40;99571.19;6216426;23;19949;-77
2022/05/30 01:52:42;;;;;;;;;;;;;;;14.01;79.36;99558.63;6166510;23;19920;-77
2022/05/30 01:55:08;;;;;;;;;;;;;;;14.17;79.35;99571.50;6217826;23;19997;-77
2022/05/30 01:57:53;;;;;;;;;;;;;;;14.04;77.25;99568.25;6194874;23;19946;-76
2022/05/30 02:00:54;;;;;;;;;;;;;;;14.07;77.76;99568.84;6216788;23;20390;-77
2022/05/30 02:03:19;;;;;;;;;;;;;;;14.19;78.68;99547.19;6166253;23;19920;-77
2022/05/30 02:05:45;;;;;;;;;;;;;;;14.24;78.23;99544.91;6190749;23;19970;-77
2022/05/30 02:08:14;;;;;;;;;;;;;;;14.34;79.05;99559.22;6215526;23;20259;-77
2022/05/30 02:10:40;;;;;;;;;;;;;;;14.26;77.79;99585.97;6190639;23;19923;-77
2022/05/30 02:13:08;;;;;;;;;;;;;;;14.13;77.72;99596.97;6166075;23;19931;-77
2022/05/30 02:18:48;;;;;;;;;;;;;;;14.12;78.78;99571.09;6165260;23;19919;-78
2022/05/30 02:21:13;;;;;;;;;;;;;;;14.18;79.65;99592.06;6216588;23;19926;-76
2022/05/30 02:23:39;;;;;;;;;;;;;;;14.12;78.86;99616.78;6217164;23;20340;-76
2022/05/30 02:26:05;;;;;;;;;;;;;;;14.19;79.62;99655.56;6165747;23;19927;-77
2022/05/30 02:28:31;;;;;;;;;;;;;;;14.45;80.67;99655.91;6190515;23;19920;-77
2022/05/30 02:30:57;;;;;;;;;;;;;;;14.41;79.57;99642.88;6215682;23;20019;-77
2022/05/30 02:38:51;;;;;;;;;;;;;;;14.34;79.97;99696.38;6190729;23;19946;-78
2022/05/30 02:41:49;;;;;;;;;;;;;;;14.28;79.73;99692.38;6173799;23;20367;-78
2022/05/30 02:44:20;;;;;;;;;;;;;;;14.23;80.21;99700.03;6215437;23;19926;-77
2022/05/30 02:46:46;;;;;;;;;;;;;;;14.16;80.10;99709.63;6190042;23;20006;-77
2022/05/30 02:49:12;;;;;;;;;;;;;;;14.09;80.11;99728.13;6165852;23;19924;-78
2022/05/30 02:51:38;;;;;;;;;;;;;;;14.01;79.53;99721.72;6190388;23;19927;-76
2022/05/30 02:54:07;;;;;;;;;;;;;;;14.09;79.93;99729.97;6190647;23;19927;-80
2022/05/30 02:56:36;;;;;;;;;;;;;;;14.05;78.96;99685.53;6192916;23;19923;-80
2022/05/30 02:59:02;;;;;;;;;;;;;;;14.08;78.94;99663.75;6142843;23;19952;-79
2022/05/30 03:01:33;;;;;;;;;;;;;;;14.14;79.01;99646.22;6144364;23;19923;-79
2022/05/30 03:03:59;;;;;;;;;;;;;;;14.19;79.46;99644.81;6190742;23;19920;-79
2022/05/30 03:06:25;;;;;;;;;;;;;;;14.17;78.78;99652.16;6167108;23;20273;-81
2022/05/30 03:08:52;;;;;;;;;;;;;;;14.14;78.25;99655.16;6191767;23;19990;-81
2022/05/30 03:11:48;;;;;;;;;;;;;;;14.14;77.35;99647.09;6191362;23;20006;-81
2022/05/30 03:14:16;;;;;;;;;;;;;;;14.19;77.87;99650.19;6192934;23;19927;-80
2022/05/30 03:16:42;;;;;;;;;;;;;;;14.20;78.31;99640.28;6215386;23;19919;-83
2022/05/30 03:19:08;;;;;;;;;;;;;;;14.29;79.19;99623.31;6166218;23;19924;-80
2022/05/30 03:21:34;;;;;;;;;;;;;;;14.32;78.57;99634.63;6218450;23;20225;-80
2022/05/30 03:24:00;;;;;;;;;;;;;;;14.24;77.38;99653.31;6192239;23;19920;-78
2022/05/30 03:26:37;;;;;;;;;;;;;;;14.11;74.12;99668.88;6191004;23;19920;-79
2022/05/30 03:29:04;;;;;;;;;;;;;;;14.04;74.49;99678.47;6217368;23;19924;-79
2022/05/30 03:31:31;;;;;;;;;;;;;;;14.00;74.82;99668.97;6166726;23;20329;-81
2022/05/30 03:33:57;;;;;;;;;;;;;;;14.05;74.29;99650.59;6194221;23;19919;-81
2022/05/30 03:36:26;;;;;;;;;;;;;;;14.04;74.63;99647.06;6191756;23;19924;-81
2022/05/30 03:39:03;;;;;;;;;;;;;;;14.08;74.99;99658.38;6245755;23;19958;-81
2022/05/30 03:41:48;;;;;;;;;;;;;;;14.25;76.08;99659.53;6201334;23;20031;-81
2022/05/30 03:44:32;;;;;;;;;;;;;;;14.45;76.62;99633.53;6247787;23;19927;-78
2022/05/30 03:46:57;;;;;;;;;;;;;;;14.59;75.78;99643.91;6169518;23;19919;-83
2022/05/30 03:49:23;;;;;;;;;;;;;;;14.71;76.33;99669.69;6166301;23;19920;-82
2022/05/30 03:51:50;;;;;;;;;;;;;;;14.60;73.48;99661.75;6191114;23;19924;-80
2022/05/30 03:54:16;;;;;;;;;;;;;;;14.86;75.90;99670.13;6190669;23;20255;-83
2022/05/30 03:56:42;;;;;;;;;;;;;;;14.86;74.39;99647.75;6190711;23;19920;-82
2022/05/30 03:59:08;;;;;;;;;;;;;;;14.77;73.59;99652.97;6190265;23;19927;-85
2022/05/30 04:01:34;;;;;;;;;;;;;;;14.96;76.10;99644.03;6190885;23;19920;-82
2022/05/30 04:03:59;;;;;;;;;;;;;;;15.13;76.79;99652.38;6190914;23;19919;-82
2022/05/30 04:06:26;;;;;;;;;;;;;;;15.17;76.26;99664.56;6166215;23;20011;-84
2022/05/30 04:08:53;;;;;;;;;;;;;;;15.13;75.56;99660.47;6165840;23;19926;-83
2022/05/30 04:11:42;;;;;;;;;;;;;;;15.25;75.94;99630.53;6199501;23;19946;-82
2022/05/30 04:14:31;;;;;;;;;;;;;;;15.27;73.93;99625.84;6175044;23;19920;-84
2022/05/30 04:17:12;;;;;;;;;;;;;;;15.22;73.77;99638.88;6171624;23;19951;-83
2022/05/30 04:19:38;;;;;;;;;;;;;;;15.49;75.55;99639.94;6167312;23;19935;-84
2022/05/30 04:22:04;;;;;;;;;;;;;;;15.59;73.11;99646.16;6191652;23;19920;-84
2022/05/30 04:24:36;;;;;;;;;;;;;;;16.10;76.11;99649.34;6168041;23;20006;-84
2022/05/30 04:27:04;;;;;;;;;;;;;;;16.46;75.83;99637.63;6215248;23;20275;-82
2022/05/30 04:29:30;;;;;;;;;;;;;;;16.64;74.76;99626.84;6165309;23;19926;-86
2022/05/30 04:32:06;;;;;;;;;;;;;;;16.79;73.46;99634.41;6191553;23;19927;-85
2022/05/30 04:34:32;;;;;;;;;;;;;;;16.69;72.27;99623.66;6216155;23;19927;-83
2022/05/30 04:36:58;;;;;;;;;;;;;;;16.62;71.49;99623.41;6165423;23;19920;-82
2022/05/30 04:39:26;;;;;;;;;;;;;;;16.70;72.03;99615.44;6189676;23;20418;-82
2022/05/30 04:41:54;;;;;;;;;;;;;;;16.59;71.79;99607.56;6215850;23;19926;-82
2022/05/30 04:44:32;;;;;;;;;;;;;;;16.42;70.80;99605.69;6239951;23;19954;-85
2022/05/30 04:47:18;;;;;;;;;;;;;;;16.64;72.39;99594.44;6194774;23;20347;-83
2022/05/30 04:49:48;;;;;;;;;;;;;;;16.88;72.30;99592.97;6214933;23;19926;-84
2022/05/30 04:52:15;;;;;;;;;;;;;;;16.63;70.10;99592.75;6189760;23;19966;-84
2022/05/30 04:54:41;;;;;;;;;;;;;;;16.51;69.99;99580.47;6189392;23;19963;-83
2022/05/30 04:57:43;;;;;;;;;;;;;;;16.37;68.96;99575.66;6191395;23;20350;-84
2022/05/30 05:00:35;;;;;;;;;;;;;;;16.74;72.80;99579.03;6215885;23;20006;-82
2022/05/30 05:03:01;;;;;;;;;;;;;;;17.03;72.73;99588.69;6214788;23;19943;-82
2022/05/30 05:05:26;;;;;;;;;;;;;;;17.08;68.28;99580.13;6214428;23;19990;-80
2022/05/30 05:08:04;;;;;;;;;;;;;;;17.00;69.70;99583.63;6214474;23;19944;-84
2022/05/30 05:10:33;;;;;;;;;;;;;;;17.49;70.78;99578.53;6165095;23;20299;-82
2022/05/30 05:13:22;;;;;;;;;;;;;;;17.89;70.82;99577.00;6198520;23;19947;-83
2022/05/30 05:16:06;;;;;;;;;;;;;;;18.27;71.94;99580.16;6216164;23;19935;-81
2022/05/30 05:18:33;;;;;;;;;;;;;;;18.30;68.95;99582.53;6165299;23;19928;-87
2022/05/30 05:20:59;;;;;;;;;;;;;;;18.47;70.61;99586.97;6189364;23;19920;-81
2022/05/30 05:23:25;;;;;;;;;;;;;;;18.53;67.14;99598.97;6214003;23;19944;-83
2022/05/30 05:25:55;;;;;;;;;;;;;;;18.60;69.68;99608.97;6214442;23;19954;-82
2022/05/30 05:28:35;;;;;;;;;;;;;;;18.76;69.25;99620.84;6168311;23;20293;-82
2022/05/30 05:31:01;;;;;;;;;;;;;;;18.89;67.92;99615.78;6164263;23;19920;-80
2022/05/30 05:33:27;;;;;;;;;;;;;;;19.00;67.65;99618.16;6189909;23;19920;-80
2022/05/30 05:35:53;;;;;;;;;;;;;;;19.02;65.69;99610.69;6188942;23;19924;-76
2022/05/30 05:38:20;;;;;;;;;;;;;;;18.94;68.26;99602.56;6189083;23;19919;-78
2022/05/30 05:41:06;;;;;;;;;;;;;;;19.08;68.12;99599.16;6167496;23;19940;-80
2022/05/30 05:43:43;;;;;;;;;;;;;;;19.23;69.91;99590.34;6166560;23;19924;-78
2022/05/30 05:46:16;;;;;;;;;;;;;;;19.23;65.17;99591.19;6164290;23;19973;-77
2022/05/30 05:48:43;;;;;;;;;;;;;;;19.26;68.09;99598.13;6164108;23;19924;-78
2022/05/30 05:51:09;;;;;;;;;;;;;;;19.42;65.50;99607.06;6189193;23;19919;-79
2022/05/30 05:53:35;;;;;;;;;;;;;;;19.50;65.63;99597.22;6163945;23;19927;-78
2022/05/30 05:56:14;;;;;;;;;;;;;;;19.49;66.70;99600.97;6164127;23;19951;-79
2022/05/30 05:58:41;;;;;;;;;;;;;;;19.46;67.17;99613.00;6215246;23;19929;-79
2022/05/30 06:01:12;;;;;;;;;;;;;;;19.10;65.19;99620.66;6188800;23;20248;-76
2022/05/30 06:03:37;;;;;;;;;;;;;;;18.54;62.96;99628.59;6164480;23;19951;-77
2022/05/30 06:06:22;;;;;;;;;;;;;;;18.41;65.33;99622.81;6213896;23;20035;-78
2022/05/30 06:09:00;;;;;;;;;;;;;;;18.19;64.89;99600.75;6189297;23;19920;-77
2022/05/30 06:11:46;;;;;;;;;;;;;;;18.15;65.82;99596.69;6168306;23;20344;-78
2022/05/30 06:14:12;;;;;;;;;;;;;;;18.38;68.90;99606.91;6188864;23;20078;-75
2022/05/30 06:16:40;;;;;;;;;;;;;;;18.71;69.39;99593.44;6189293;23;20059;-78
2022/05/30 06:19:08;;;;;;;;;;;;;;;18.96;67.67;99573.47;6164210;23;19920;-76
2022/05/30 06:21:34;;;;;;;;;;;;;;;19.25;65.73;99572.88;6213906;23;19919;-77
2022/05/30 06:24:00;;;;;;;;;;;;;;;19.55;66.43;99567.72;6214087;23;19926;-78
2022/05/30 06:26:44;;;;;;;;;;;;;;;19.91;67.59;99565.41;6214183;23;19959;-77
2022/05/30 06:29:29;;;;;;;;;;;;;;;20.23;66.62;99566.22;6193566;23;19939;-77
2022/05/30 06:31:56;;;;;;;;;;;;;;;20.29;66.40;99568.22;6190780;23;19919;-78
2022/05/30 06:34:22;;;;;;;;;;;;;;;20.10;63.26;99585.81;6215451;23;19982;-79
2022/05/30 06:36:48;;;;;;;;;;;;;;;20.08;64.91;99568.84;6190419;23;20336;-77
2022/05/30 06:39:17;;;;;;;;;;;;;;;19.56;62.57;99575.69;6190734;23;20042;-78
2022/05/30 06:42:08;;;;;;;;;;;;;;;19.68;63.51;99572.63;6169646;23;20362;-76
2022/05/30 06:44:53;;;;;;;;;;;;;;;19.61;64.28;99586.00;6193994;23;19919;-78
2022/05/30 06:47:38;;;;;;;;;;;;;;;19.28;60.93;99591.50;6195673;23;20497;-77
2022/05/30 06:50:22;;;;;;;;;;;;;;;19.19;64.32;99605.25;6194425;23;19920;-77
2022/05/30 06:52:48;;;;;;;;;;;;;;;19.29;65.23;99608.63;6215300;23;19927;-76
2022/05/30 06:55:13;;;;;;;;;;;;;;;19.16;61.60;99601.88;6190097;23;19923;-77
2022/05/30 07:00:24;;;;;;;;;;;;;;;19.28;63.30;99626.75;6189833;23;19926;-77
2022/05/30 07:03:14;;;;;;;;;;;;;;;19.14;62.86;99624.72;6173796;23;20280;-76
2022/05/30 07:05:58;;;;;;;;;;;;;;;19.06;63.72;99627.44;6168989;23;20350;-77
2022/05/30 07:08:46;;;;;;;;;;;;;;;18.47;59.74;99619.44;6201088;23;19920;-78
2022/05/30 07:11:32;;;;;;;;;;;;;;;18.02;61.04;99638.78;6204105;23;19951;-79
2022/05/30 07:13:59;;;;;;;;;;;;;;;17.92;62.32;99639.72;6190451;23;19920;-79
2022/05/30 07:16:25;;;;;;;;;;;;;;;17.83;62.90;99645.28;6165244;23;20002;-79
2022/05/30 07:18:51;;;;;;;;;;;;;;;18.05;64.29;99641.97;6165014;23;20336;-78
2022/05/30 07:21:17;;;;;;;;;;;;;;;17.69;61.77;99644.00;6189587;23;19978;-78
2022/05/30 07:24:02;;;;;;;;;;;;;;;16.82;62.96;99639.50;6193576;23;19966;-78
2022/05/30 07:27:06;;;;;;;;;;;;;;;16.26;64.26;99645.00;6141964;23;19916;-77
2022/05/30 07:29:50;;;;;;;;;;;;;;;16.20;64.92;99648.28;6162851;23;20311;-78
2022/05/30 07:32:39;;;;;;;;;;;;;;;16.55;65.11;99654.75;6146792;23;19943;-78
2022/05/30 07:35:23;;;;;;;;;;;;;;;16.51;62.78;99672.22;6193740;23;19925;-78
2022/05/30 07:38:01;;;;;;;;;;;;;;;16.38;64.06;99674.47;6192427;23;19916;-78
2022/05/30 07:40:34;;;;;;;;;;;;;;;16.54;64.08;99680.03;6166680;23;19966;-79
2022/05/30 07:43:20;;;;;;;;;;;;;;;16.73;65.26;99662.84;6216054;23;20314;-78
2022/05/30 07:46:10;;;;;;;;;;;;;;;16.88;64.09;99661.31;6145800;23;19923;-79
2022/05/30 07:48:54;;;;;;;;;;;;;;;17.11;64.39;99661.69;6240668;23;19927;-77
2022/05/30 07:51:58;;;;;;;;;;;;;;;16.88;63.61;99665.88;6182975;23;19975;-79
2022/05/30 07:54:34;;;;;;;;;;;;;;;16.99;63.70;99668.34;6158536;23;19920;-78
2022/05/30 07:57:08;;;;;;;;;;;;;;;17.02;64.08;99676.13;6166341;23;19920;-78
2022/05/30 07:59:35;;;;;;;;;;;;;;;17.08;64.29;99672.81;6190133;23;19924;-79
2022/05/30 08:02:02;;;;;;;;;;;;;;;17.37;64.88;99679.78;6165367;23;19920;-79
2022/05/30 08:04:29;;;;;;;;;;;;;;;18.16;64.43;99678.72;6189813;23;19920;-78
2022/05/30 08:06:55;;;;;;;;;;;;;;;18.45;61.59;99683.72;6214675;23;19955;-77
2022/05/30 08:09:39;;;;;;;;;;;;;;;18.81;61.70;99683.50;6215650;23;19926;-79
2022/05/30 08:12:08;;;;;;;;;;;;;;;19.14;58.42;99682.50;6214938;23;19924;-80
2022/05/30 08:14:55;;;;;;;;;;;;;;;18.82;57.83;99683.31;6205500;23;20351;-79
2022/05/30 08:17:22;;;;;;;;;;;;;;;18.48;57.20;99688.81;6190333;23;19920;-79
2022/05/30 08:19:49;;;;;;;;;;;;;;;18.39;58.08;99689.78;6190704;23;19924;-79
2022/05/30 08:22:16;;;;;;;;;;;;;;;18.17;58.78;99694.78;6189894;23;19920;-78
2022/05/30 08:24:44;;;;;;;;;;;;;;;18.31;58.09;99697.88;6165000;23;19931;-78
2022/05/30 08:27:15;;;;;;;;;;;;;;;18.58;57.82;99694.94;6166611;23;20038;-79
2022/05/30 08:30:08;;;;;;;;;;;;;;;18.73;56.94;99688.88;6189190;23;19920;-78
2022/05/30 08:32:38;;;;;;;;;;;;;;;19.33;56.77;99691.28;6165322;23;19943;-79
2022/05/30 08:35:14;;;;;;;;;;;;;;;19.34;55.13;99690.28;6239880;23;20002;-78
2022/05/30 08:37:41;;;;;;;;;;;;;;;19.05;55.85;99691.63;6164760;23;19920;-80
2022/05/30 08:42:55;;;;;;;;;;;;;;;19.02;56.66;99693.81;6189898;23;19927;-78
2022/05/30 08:45:33;;;;;;;;;;;;;;;18.73;56.61;99687.03;6142890;23;20298;-79
2022/05/30 08:48:11;;;;;;;;;;;;;;;18.31;57.51;99689.75;6165926;23;19920;-77
2022/05/30 08:50:40;;;;;;;;;;;;;;;18.10;57.57;99696.47;6139917;23;19927;-79
2022/05/30 08:53:25;;;;;;;;;;;;;;;18.14;58.97;99680.75;6164441;23;19974;-79
2022/05/30 08:56:17;;;;;;;;;;;;;;;18.60;57.98;99686.63;6164760;23;19920;-78
2022/05/30 08:59:12;;;;;;;;;;;;;;;18.67;56.89;99685.81;6185966;23;19920;-78
2022/05/30 09:01:47;;;;;;;;;;;;;;;19.25;57.40;99678.56;6189895;23;19920;-78
2022/05/30 09:04:48;;;;;;;;;;;;;;;19.75;54.57;99682.13;6214514;23;20021;-78
2022/05/30 09:07:18;;;;;;;;;;;;;;;19.92;53.92;99688.31;6164879;23;20241;-79
2022/05/30 09:10:15;;;;;;;;;;;;;;;20.07;53.72;99681.97;6164984;23;20024;-79
2022/05/30 09:12:55;;;;;;;;;;;;;;;20.64;52.91;99688.19;6164284;23;19924;-77
2022/05/30 09:15:28;;;;;;;;;;;;;;;21.04;52.53;99679.75;6239752;23;20316;-77
2022/05/30 09:18:04;;;;;;;;;;;;;;;21.32;51.40;99684.59;6164967;23;19955;-78
2022/05/30 09:20:31;;;;;;;;;;;;;;;21.72;50.43;99677.97;6163942;23;19959;-79
2022/05/30 09:23:01;;;;;;;;;;;;;;;21.74;48.94;99685.91;6189540;23;19920;-78
2022/05/30 09:26:07;;;;;;;;;;;;;;;22.07;50.36;99689.97;6188722;23;20404;-78
2022/05/30 09:28:52;;;;;;;;;;;;;;;21.92;49.82;99688.28;6166123;23;20348;-78
2022/05/30 09:31:41;;;;;;;;;;;;;;;21.79;48.97;99688.94;6239563;23;19974;-78
2022/05/30 09:34:33;;;;;;;;;;;;;;;21.96;48.94;99695.03;6191957;23;19982;-78
2022/05/30 09:37:30;;;;;;;;;;;;;;;21.39;48.45;99692.91;6192436;23;19919;-79
2022/05/30 09:40:10;;;;;;;;;;;;;;;20.63;49.98;99694.66;6188700;23;19927;-79
2022/05/30 09:42:48;;;;;;;;;;;;;;;20.72;50.06;99701.72;6189650;23;19920;-80
2022/05/30 09:45:24;;;;;;;;;;;;;;;20.91;49.78;99706.69;6189433;23;19919;-80
2022/05/30 09:48:19;;;;;;;;;;;;;;;20.97;49.17;99708.69;6200432;23;20237;-78
2022/05/30 09:51:01;;;;;;;;;;;;;;;20.92;49.66;99702.94;6167261;23;19927;-79
2022/05/30 09:53:43;;;;;;;;;;;;;;;20.87;48.66;99699.91;6163753;23;19920;-82
2022/05/30 09:56:13;;;;;;;;;;;;;;;20.67;48.99;99693.25;6189975;23;19927;-79
2022/05/30 09:58:43;;;;;;;;;;;;;;;20.76;49.23;99698.47;6189049;23;19970;-78
2022/05/30 10:01:26;;;;;;;;;;;;;;;20.60;48.76;99693.97;6167706;23;19920;-78
2022/05/30 10:04:00;;;;;;;;;;;;;;;20.88;49.60;99700.78;6190743;23;19947;-89
2022/05/30 10:07:15;;;;;;;;;;;;;;;21.39;49.23;99682.03;6210177;23;19939;-82
2022/05/30 10:10:17;;;;;;;;;;;;;;;21.92;47.85;99675.50;6215988;23;19939;-87
2022/05/30 10:12:52;;;;;;;;;;;;;;;22.88;46.24;99668.13;6217343;23;19962;-86
2022/05/30 10:15:32;;;;;;;;;;;;;;;23.72;43.75;99676.44;6168682;23;19920;-81
2022/05/30 10:18:18;;;;;;;;;;;;;;;23.93;42.32;99674.69;6217028;23;19928;-83
2022/05/30 10:20:54;;;;;;;;;;;;;;;24.42;42.88;99677.25;6167565;23;19927;-85
2022/05/30 10:30:27;;;;;;;;;;;;;;;24.63;39.06;99672.69;6215421;23;20256;-82
2022/05/30 10:33:22;;;;;;;;;;;;;;;24.44;39.18;99668.84;6200839;23;20066;-83
2022/05/30 10:35:48;;;;;;;;;;;;;;;25.24;38.22;99669.91;6165862;23;19927;-86
2022/05/30 10:38:32;;;;;;;;;;;;;;;25.67;38.76;99663.97;6166907;23;19919;-82
2022/05/30 10:40:58;;;;;;;;;;;;;;;25.90;36.52;99674.47;6216036;23;19923;-80
2022/05/30 10:43:42;;;;;;;;;;;;;;;25.52;36.68;99663.34;6165977;23;19970;-85
2022/05/30 10:46:11;;;;;;;;;;;;;;;25.29;38.05;99672.84;6191364;23;20291;-82
2022/05/30 10:48:38;;;;;;;;;;;;;;;24.56;38.24;99671.81;6166853;23;19920;-81
2022/05/30 10:51:17;;;;;;;;;;;;;;;24.71;39.09;99662.44;6196080;23;19919;-82
2022/05/30 10:53:54;;;;;;;;;;;;;;;26.02;38.37;99666.44;6224103;23;19924;-83
2022/05/30 10:56:23;;;;;;;;;;;;;;;26.74;33.61;99662.56;6220464;23;19927;-83
2022/05/30 10:58:56;;;;;;;;;;;;;;;25.91;35.25;99659.72;6192191;23;19926;-82
2022/05/30 11:01:40;;;;;;;;;;;;;;;25.33;37.08;99654.94;6191628;23;20391;-79
2022/05/30 11:04:09;;;;;;;;;;;;;;;25.27;37.55;99653.03;6190357;23;20307;-80
2022/05/30 11:06:39;;;;;;;;;;;;;;;26.15;35.45;99645.31;6166071;23;19920;-81
2022/05/30 11:09:12;;;;;;;;;;;;;;;26.38;33.59;99644.81;6190576;23;19920;-81
2022/05/30 11:11:53;;;;;;;;;;;;;;;27.07;32.30;99642.28;6190291;23;19969;-81
2022/05/30 11:14:22;;;;;;;;;;;;;;;27.16;33.09;99656.63;6165678;23;19927;-79
2022/05/30 11:17:06;;;;;;;;;;;;;;;26.91;33.30;99648.31;6215797;23;19969;-80
2022/05/30 11:19:54;;;;;;;;;;;;;;;26.39;33.86;99656.59;6240911;23;19942;-81
2022/05/30 11:22:46;;;;;;;;;;;;;;;25.98;34.53;99643.28;6240212;23;19920;-79
2022/05/30 11:25:13;;;;;;;;;;;;;;;26.97;32.77;99630.97;6164426;23;19920;-81
2022/05/30 11:27:41;;;;;;;;;;;;;;;27.77;33.53;99631.16;6214413;23;19981;-82
2022/05/30 11:30:06;;;;;;;;;;;;;;;28.26;31.51;99630.16;6214905;23;19927;-81
2022/05/30 11:32:32;;;;;;;;;;;;;;;28.29;31.01;99639.84;6214824;23;19920;-82
2022/05/30 11:35:01;;;;;;;;;;;;;;;27.26;31.89;99635.81;6190104;23;19920;-84
2022/05/30 11:37:37;;;;;;;;;;;;;;;27.89;32.33;99628.50;6216637;23;20325;-81
2022/05/30 11:40:22;;;;;;;;;;;;;;;29.50;29.95;99618.56;6189196;23;19924;-81
2022/05/30 11:42:57;;;;;;;;;;;;;;;28.96;29.33;99623.25;6189756;23;19920;-79
2022/05/30 11:45:37;;;;;;;;;;;;;;;28.33;29.72;99616.31;6165323;23;19923;-83
2022/05/30 11:48:02;;;;;;;;;;;;;;;29.26;29.53;99596.53;6190104;23;20291;-83
2022/05/30 11:50:31;;;;;;;;;;;;;;;29.90;27.48;99595.78;6165083;23;19946;-82
2022/05/30 11:53:15;;;;;;;;;;;;;;;29.67;27.84;99597.50;6189602;23;19920;-81
2022/05/30 11:56:03;;;;;;;;;;;;;;;29.58;27.25;99585.19;6214756;23;20022;-80
2022/05/30 11:58:29;;;;;;;;;;;;;;;30.18;26.76;99606.88;6189471;23;19958;-78
2022/05/30 12:00:55;;;;;;;;;;;;;;;30.36;26.24;99589.31;6214349;23;20340;-81
2022/05/30 12:03:24;;;;;;;;;;;;;;;30.15;26.19;99590.81;6214622;23;19998;-81
2022/05/30 12:06:10;;;;;;;;;;;;;;;30.34;26.35;99590.66;6189533;23;19920;-80
2022/05/30 12:08:48;;;;;;;;;;;;;;;31.08;26.37;99577.66;6189569;23;19999;-81
2022/05/30 12:11:41;;;;;;;;;;;;;;;31.28;25.28;99573.53;6165233;23;19963;-81
2022/05/30 12:14:26;;;;;;;;;;;;;;;31.42;25.76;99585.94;6145956;23;20359;-80
2022/05/30 12:17:10;;;;;;;;;;;;;;;32.09;24.91;99573.91;6214594;23;19970;-80
2022/05/30 12:25:36;;;;;;;;;;;;;;;32.79;24.16;99575.75;6189034;23;20352;-81
2022/05/30 12:28:03;;;;;;;;;;;;;;;32.23;23.57;99577.09;6165317;23;19947;-79
2022/05/30 12:30:35;;;;;;;;;;;;;;;31.12;24.51;99569.72;6165051;23;19919;-79
2022/05/30 12:33:03;;;;;;;;;;;;;;;29.21;27.11;99557.84;6164687;23;19926;-80
2022/05/30 12:35:29;;;;;;;;;;;;;;;28.29;28.86;99555.47;6164845;23;19920;-82
2022/05/30 12:37:59;;;;;;;;;;;;;;;28.68;28.72;99553.22;6164654;23;19943;-82
2022/05/30 12:40:25;;;;;;;;;;;;;;;27.60;30.22;99554.81;6164455;23;19920;-81
2022/05/30 12:42:57;;;;;;;;;;;;;;;28.58;29.27;99561.19;6164547;23;19926;-79
2022/05/30 12:45:43;;;;;;;;;;;;;;;30.41;27.99;99552.72;6164612;23;19927;-81
2022/05/30 12:48:24;;;;;;;;;;;;;;;29.35;27.73;99552.13;6213565;23;20291;-81
2022/05/30 12:50:51;;;;;;;;;;;;;;;27.89;29.50;99552.41;6164975;23;20280;-78
2022/05/30 12:53:21;;;;;;;;;;;;;;;28.76;28.61;99541.88;6164423;23;19920;-80
2022/05/30 12:55:48;;;;;;;;;;;;;;;30.08;26.73;99543.22;6164410;23;19927;-81
2022/05/30 12:58:34;;;;;;;;;;;;;;;29.87;26.54;99528.22;6216220;23;19919;-80
2022/05/30 13:01:20;;;;;;;;;;;;;;;30.75;26.93;99531.56;6174107;23;20224;-80
2022/05/30 13:04:02;;;;;;;;;;;;;;;31.51;24.48;99533.84;6215035;23;19920;-81
2022/05/30 13:06:29;;;;;;;;;;;;;;;30.09;25.67;99539.41;6214191;23;19989;-80
2022/05/30 13:08:55;;;;;;;;;;;;;;;29.80;26.28;99537.72;6213912;23;20306;-79
2022/05/30 13:11:33;;;;;;;;;;;;;;;30.66;24.62;99531.13;6164189;23;19952;-79
2022/05/30 13:14:22;;;;;;;;;;;;;;;31.43;24.42;99533.19;6189265;23;19975;-78
2022/05/30 13:16:48;;;;;;;;;;;;;;;32.15;23.60;99529.44;6213889;23;19920;-78
2022/05/30 13:19:15;;;;;;;;;;;;;;;31.43;24.56;99535.13;6188769;23;19973;-78
2022/05/30 13:21:43;;;;;;;;;;;;;;;30.29;25.29;99538.16;6188715;23;19962;-78
2022/05/30 13:24:28;;;;;;;;;;;;;;;30.70;24.83;99524.00;6214024;23;19920;-79
2022/05/30 13:26:53;;;;;;;;;;;;;;;31.60;24.17;99530.41;6189277;23;19930;-79
2022/05/30 13:29:19;;;;;;;;;;;;;;;30.87;24.40;99534.25;6164055;23;19920;-79
2022/05/30 13:31:49;;;;;;;;;;;;;;;30.92;24.05;99531.59;6164510;23;19988;-79
2022/05/30 13:34:16;;;;;;;;;;;;;;;29.80;25.27;99535.78;6213365;23;19998;-79
2022/05/30 13:36:42;;;;;;;;;;;;;;;28.05;28.27;99550.94;6164702;23;19919;-77
2022/05/30 13:39:10;;;;;;;;;;;;;;;27.61;29.46;99539.19;6166018;23;19920;-81
2022/05/30 13:41:38;;;;;;;;;;;;;;;28.67;28.12;99531.47;6190436;23;19920;-82
2022/05/30 13:47:16;;;;;;;;;;;;;;;28.59;28.49;99535.38;6186942;23;19920;-82
2022/05/30 13:49:43;;;;;;;;;;;;;;;26.73;31.19;99537.47;6191138;23;19971;-79
2022/05/30 13:52:21;;;;;;;;;;;;;;;25.25;32.80;99542.97;6191353;23;19919;-81
2022/05/30 13:54:49;;;;;;;;;;;;;;;24.83;34.13;99539.63;6166433;23;19920;-79